sensor_id;sensor_type;location;lat;lon;timestamp;temperature;humidity
38941;DHT22;43236;47.208;7.518;2023-12-20T00:02:45;6.90;97.70
38941;DHT22;43236;47.208;7.518;2023-12-20T00:05:32;6.90;97.50
38941;DHT22;43236;47.208;7.518;2023-12-20T00:08:21;6.90;97.50
38941;DHT22;43236;47.208;7.518;2023-12-20T00:11:08;7.00;97.50
38941;DHT22;43236;47.208;7.518;2023-12-20T00:13:55;7.00;97.40
38941;DHT22;43236;47.208;7.518;2023-12-20T00:16:43;7.00;97.40
38941;DHT22;43236;47.208;7.518;2023-12-20T00:19:30;7.00;97.50
38941;DHT22;43236;47.208;7.518;2023-12-20T00:22:17;7.00;97.40
38941;DHT22;43236;47.208;7.518;2023-12-20T00:25:05;6.90;97.20
38941;DHT22;43236;47.208;7.518;2023-12-20T00:27:52;6.90;97.30
38941;DHT22;43236;47.208;7.518;2023-12-20T00:30:39;6.90;97.30
38941;DHT22;43236;47.208;7.518;2023-12-20T00:33:27;7.00;97.30
38941;DHT22;43236;47.208;7.518;2023-12-20T00:36:14;7.00;97.30
38941;DHT22;43236;47.208;7.518;2023-12-20T00:39:01;7.00;97.30
38941;DHT22;43236;47.208;7.518;2023-12-20T00:41:49;7.00;97.20
38941;DHT22;43236;47.208;7.518;2023-12-20T00:44:36;7.00;97.30
38941;DHT22;43236;47.208;7.518;2023-12-20T00:47:23;7.00;97.30
38941;DHT22;43236;47.208;7.518;2023-12-20T00:50:11;7.00;97.40
38941;DHT22;43236;47.208;7.518;2023-12-20T00:52:58;7.00;97.50
38941;DHT22;43236;47.208;7.518;2023-12-20T00:55:45;7.10;97.60
38941;DHT22;43236;47.208;7.518;2023-12-20T00:58:33;7.10;97.30
38941;DHT22;43236;47.208;7.518;2023-12-20T01:01:20;7.10;97.40
38941;DHT22;43236;47.208;7.518;2023-12-20T01:04:08;7.10;97.40
38941;DHT22;43236;47.208;7.518;2023-12-20T01:06:56;7.10;97.50
38941;DHT22;43236;47.208;7.518;2023-12-20T01:09:43;7.10;97.60
38941;DHT22;43236;47.208;7.518;2023-12-20T01:12:30;7.10;97.40
38941;DHT22;43236;47.208;7.518;2023-12-20T01:15:17;7.10;97.60
38941;DHT22;43236;47.208;7.518;2023-12-20T01:18:04;7.10;97.70
38941;DHT22;43236;47.208;7.518;2023-12-20T01:20:51;7.10;97.70
38941;DHT22;43236;47.208;7.518;2023-12-20T01:23:40;7.10;97.60
38941;DHT22;43236;47.208;7.518;2023-12-20T01:26:27;7.10;97.60
38941;DHT22;43236;47.208;7.518;2023-12-20T01:29:14;7.10;97.60
38941;DHT22;43236;47.208;7.518;2023-12-20T01:32:01;7.10;97.60
38941;DHT22;43236;47.208;7.518;2023-12-20T01:34:48;7.10;97.70
38941;DHT22;43236;47.208;7.518;2023-12-20T01:37:35;7.10;97.80
38941;DHT22;43236;47.208;7.518;2023-12-20T01:40:24;7.00;97.70
38941;DHT22;43236;47.208;7.518;2023-12-20T01:43:11;7.00;98.00
38941;DHT22;43236;47.208;7.518;2023-12-20T01:45:58;7.10;97.90
38941;DHT22;43236;47.208;7.518;2023-12-20T01:48:46;7.10;98.00
38941;DHT22;43236;47.208;7.518;2023-12-20T01:51:33;7.10;98.00
38941;DHT22;43236;47.208;7.518;2023-12-20T01:54:21;7.10;98.10
38941;DHT22;43236;47.208;7.518;2023-12-20T01:57:10;7.10;98.10
38941;DHT22;43236;47.208;7.518;2023-12-20T01:59:57;7.10;98.30
38941;DHT22;43236;47.208;7.518;2023-12-20T02:02:45;7.00;98.20
38941;DHT22;43236;47.208;7.518;2023-12-20T02:05:33;7.10;98.20
38941;DHT22;43236;47.208;7.518;2023-12-20T02:08:20;7.00;98.10
38941;DHT22;43236;47.208;7.518;2023-12-20T02:11:07;7.00;98.20
38941;DHT22;43236;47.208;7.518;2023-12-20T02:13:56;7.00;98.50
38941;DHT22;43236;47.208;7.518;2023-12-20T02:16:43;6.90;98.50
38941;DHT22;43236;47.208;7.518;2023-12-20T02:19:30;7.00;98.70
38941;DHT22;43236;47.208;7.518;2023-12-20T02:22:19;7.00;98.70
38941;DHT22;43236;47.208;7.518;2023-12-20T02:25:06;7.10;98.80
38941;DHT22;43236;47.208;7.518;2023-12-20T02:27:53;7.10;98.50
38941;DHT22;43236;47.208;7.518;2023-12-20T02:30:41;7.20;98.70
38941;DHT22;43236;47.208;7.518;2023-12-20T02:33:28;7.20;98.50
38941;DHT22;43236;47.208;7.518;2023-12-20T02:36:15;7.10;98.50
38941;DHT22;43236;47.208;7.518;2023-12-20T02:39:03;7.20;98.40
38941;DHT22;43236;47.208;7.518;2023-12-20T02:41:50;7.10;98.30
38941;DHT22;43236;47.208;7.518;2023-12-20T02:44:37;7.10;98.40
38941;DHT22;43236;47.208;7.518;2023-12-20T02:47:24;7.10;98.50
38941;DHT22;43236;47.208;7.518;2023-12-20T02:50:11;7.10;98.50
38941;DHT22;43236;47.208;7.518;2023-12-20T02:52:58;7.10;98.70
38941;DHT22;43236;47.208;7.518;2023-12-20T02:55:47;7.20;98.80
38941;DHT22;43236;47.208;7.518;2023-12-20T02:58:34;7.20;98.90
38941;DHT22;43236;47.208;7.518;2023-12-20T03:01:21;7.30;99.10
38941;DHT22;43236;47.208;7.518;2023-12-20T03:04:08;7.30;99.00
38941;DHT22;43236;47.208;7.518;2023-12-20T03:06:55;7.30;98.80
38941;DHT22;43236;47.208;7.518;2023-12-20T03:09:42;7.30;98.70
38941;DHT22;43236;47.208;7.518;2023-12-20T03:12:30;7.30;98.70
38941;DHT22;43236;47.208;7.518;2023-12-20T03:15:17;7.30;98.50
38941;DHT22;43236;47.208;7.518;2023-12-20T03:18:04;7.30;98.90
38941;DHT22;43236;47.208;7.518;2023-12-20T03:20:51;7.30;99.00
38941;DHT22;43236;47.208;7.518;2023-12-20T03:23:38;7.30;99.00
38941;DHT22;43236;47.208;7.518;2023-12-20T03:26:26;7.40;98.90
38941;DHT22;43236;47.208;7.518;2023-12-20T03:29:14;7.40;98.90
38941;DHT22;43236;47.208;7.518;2023-12-20T03:32:01;7.40;99.10
38941;DHT22;43236;47.208;7.518;2023-12-20T03:34:48;7.40;99.10
38941;DHT22;43236;47.208;7.518;2023-12-20T03:37:35;7.40;99.20
38941;DHT22;43236;47.208;7.518;2023-12-20T03:40:22;7.40;99.10
38941;DHT22;43236;47.208;7.518;2023-12-20T03:43:09;7.40;99.10
38941;DHT22;43236;47.208;7.518;2023-12-20T03:45:57;7.40;99.30
38941;DHT22;43236;47.208;7.518;2023-12-20T03:48:45;7.40;99.40
38941;DHT22;43236;47.208;7.518;2023-12-20T03:51:32;7.40;99.20
38941;DHT22;43236;47.208;7.518;2023-12-20T03:54:19;7.40;99.40
38941;DHT22;43236;47.208;7.518;2023-12-20T03:57:06;7.40;99.50
38941;DHT22;43236;47.208;7.518;2023-12-20T03:59:53;7.50;99.50
38941;DHT22;43236;47.208;7.518;2023-12-20T04:02:42;7.40;99.50
38941;DHT22;43236;47.208;7.518;2023-12-20T04:05:29;7.40;99.60
38941;DHT22;43236;47.208;7.518;2023-12-20T04:08:16;7.50;99.60
38941;DHT22;43236;47.208;7.518;2023-12-20T04:11:03;7.40;99.30
38941;DHT22;43236;47.208;7.518;2023-12-20T04:13:50;7.40;99.50
38941;DHT22;43236;47.208;7.518;2023-12-20T04:16:37;7.50;99.80
38941;DHT22;43236;47.208;7.518;2023-12-20T04:19:26;7.50;99.70
38941;DHT22;43236;47.208;7.518;2023-12-20T04:22:13;7.50;99.80
38941;DHT22;43236;47.208;7.518;2023-12-20T04:25:00;7.50;99.80
38941;DHT22;43236;47.208;7.518;2023-12-20T04:27:47;7.50;99.80
38941;DHT22;43236;47.208;7.518;2023-12-20T04:30:34;7.50;99.90
38941;DHT22;43236;47.208;7.518;2023-12-20T04:33:22;7.60;99.90
38941;DHT22;43236;47.208;7.518;2023-12-20T04:36:10;7.60;99.90
38941;DHT22;43236;47.208;7.518;2023-12-20T04:38:57;7.50;99.90
38941;DHT22;43236;47.208;7.518;2023-12-20T04:41:45;7.50;99.90
38941;DHT22;43236;47.208;7.518;2023-12-20T04:44:33;7.50;99.90
38941;DHT22;43236;47.208;7.518;2023-12-20T04:47:20;7.60;99.90
38941;DHT22;43236;47.208;7.518;2023-12-20T04:50:08;7.60;99.90
38941;DHT22;43236;47.208;7.518;2023-12-20T04:52:57;7.60;99.90
38941;DHT22;43236;47.208;7.518;2023-12-20T04:55:44;7.60;99.90
38941;DHT22;43236;47.208;7.518;2023-12-20T04:58:31;7.60;99.90
38941;DHT22;43236;47.208;7.518;2023-12-20T05:01:18;7.60;99.90
38941;DHT22;43236;47.208;7.518;2023-12-20T05:04:05;7.60;99.90
38941;DHT22;43236;47.208;7.518;2023-12-20T05:06:52;7.50;99.90
38941;DHT22;43236;47.208;7.518;2023-12-20T05:09:40;7.60;99.90
38941;DHT22;43236;47.208;7.518;2023-12-20T05:12:28;7.50;99.90
38941;DHT22;43236;47.208;7.518;2023-12-20T05:15:15;7.50;99.90
38941;DHT22;43236;47.208;7.518;2023-12-20T05:18:02;7.50;99.90
38941;DHT22;43236;47.208;7.518;2023-12-20T05:20:49;7.50;99.90
38941;DHT22;43236;47.208;7.518;2023-12-20T05:23:37;7.60;99.90
38941;DHT22;43236;47.208;7.518;2023-12-20T05:26:25;7.60;99.90
38941;DHT22;43236;47.208;7.518;2023-12-20T05:29:12;7.60;99.90
38941;DHT22;43236;47.208;7.518;2023-12-20T05:31:59;7.70;99.90
38941;DHT22;43236;47.208;7.518;2023-12-20T05:34:46;7.70;99.90
38941;DHT22;43236;47.208;7.518;2023-12-20T05:37:33;7.70;99.90
38941;DHT22;43236;47.208;7.518;2023-12-20T05:40:20;7.70;99.90
38941;DHT22;43236;47.208;7.518;2023-12-20T05:43:08;7.70;99.90
38941;DHT22;43236;47.208;7.518;2023-12-20T05:45:55;7.70;99.90
38941;DHT22;43236;47.208;7.518;2023-12-20T05:48:43;7.70;99.90
38941;DHT22;43236;47.208;7.518;2023-12-20T05:51:30;7.70;99.90
38941;DHT22;43236;47.208;7.518;2023-12-20T05:54:18;7.70;99.90
38941;DHT22;43236;47.208;7.518;2023-12-20T05:57:05;7.70;99.90
38941;DHT22;43236;47.208;7.518;2023-12-20T05:59:53;7.70;99.90
38941;DHT22;43236;47.208;7.518;2023-12-20T06:02:40;7.70;99.90
38941;DHT22;43236;47.208;7.518;2023-12-20T06:05:27;7.70;99.90
38941;DHT22;43236;47.208;7.518;2023-12-20T06:08:14;7.70;99.90
38941;DHT22;43236;47.208;7.518;2023-12-20T06:11:01;7.70;99.90
38941;DHT22;43236;47.208;7.518;2023-12-20T06:13:48;7.80;99.90
38941;DHT22;43236;47.208;7.518;2023-12-20T06:16:39;7.70;99.90
38941;DHT22;43236;47.208;7.518;2023-12-20T06:19:26;7.70;99.90
38941;DHT22;43236;47.208;7.518;2023-12-20T06:22:13;7.70;99.90
38941;DHT22;43236;47.208;7.518;2023-12-20T06:25:00;7.70;99.90
38941;DHT22;43236;47.208;7.518;2023-12-20T06:27:47;7.70;99.90
38941;DHT22;43236;47.208;7.518;2023-12-20T06:30:34;7.80;99.90
38941;DHT22;43236;47.208;7.518;2023-12-20T06:33:22;7.80;99.90
38941;DHT22;43236;47.208;7.518;2023-12-20T06:36:11;7.90;99.90
38941;DHT22;43236;47.208;7.518;2023-12-20T06:38:58;7.90;99.90
38941;DHT22;43236;47.208;7.518;2023-12-20T06:41:45;7.90;99.90
38941;DHT22;43236;47.208;7.518;2023-12-20T06:44:32;7.90;99.90
38941;DHT22;43236;47.208;7.518;2023-12-20T06:47:20;7.90;99.90
38941;DHT22;43236;47.208;7.518;2023-12-20T06:50:08;7.90;99.90
38941;DHT22;43236;47.208;7.518;2023-12-20T06:52:55;8.00;99.90
38941;DHT22;43236;47.208;7.518;2023-12-20T06:55:42;8.00;99.90
38941;DHT22;43236;47.208;7.518;2023-12-20T06:58:29;8.00;99.90
38941;DHT22;43236;47.208;7.518;2023-12-20T07:01:16;8.00;99.90
38941;DHT22;43236;47.208;7.518;2023-12-20T07:04:03;8.00;99.90
38941;DHT22;43236;47.208;7.518;2023-12-20T07:06:52;8.00;99.90
38941;DHT22;43236;47.208;7.518;2023-12-20T07:09:42;8.00;99.90
38941;DHT22;43236;47.208;7.518;2023-12-20T07:12:29;8.00;99.90
38941;DHT22;43236;47.208;7.518;2023-12-20T07:15:16;8.00;99.90
38941;DHT22;43236;47.208;7.518;2023-12-20T07:18:04;8.00;99.90
38941;DHT22;43236;47.208;7.518;2023-12-20T07:20:52;8.00;99.90
38941;DHT22;43236;47.208;7.518;2023-12-20T07:23:42;7.90;99.90
38941;DHT22;43236;47.208;7.518;2023-12-20T07:26:29;7.90;99.90
38941;DHT22;43236;47.208;7.518;2023-12-20T07:29:16;7.90;99.90
38941;DHT22;43236;47.208;7.518;2023-12-20T07:32:04;8.00;99.90
38941;DHT22;43236;47.208;7.518;2023-12-20T07:34:51;8.00;99.90
38941;DHT22;43236;47.208;7.518;2023-12-20T07:37:39;8.00;99.90
38941;DHT22;43236;47.208;7.518;2023-12-20T07:40:27;8.10;99.90
38941;DHT22;43236;47.208;7.518;2023-12-20T07:43:14;8.10;99.90
38941;DHT22;43236;47.208;7.518;2023-12-20T07:46:04;8.10;99.90
38941;DHT22;43236;47.208;7.518;2023-12-20T07:48:52;8.10;99.90
38941;DHT22;43236;47.208;7.518;2023-12-20T07:51:39;8.20;99.90
38941;DHT22;43236;47.208;7.518;2023-12-20T07:54:26;8.20;99.90
38941;DHT22;43236;47.208;7.518;2023-12-20T07:57:14;8.20;99.90
38941;DHT22;43236;47.208;7.518;2023-12-20T08:00:01;8.20;99.90
38941;DHT22;43236;47.208;7.518;2023-12-20T08:02:49;8.20;99.90
38941;DHT22;43236;47.208;7.518;2023-12-20T08:05:37;8.20;99.90
38941;DHT22;43236;47.208;7.518;2023-12-20T08:08:25;8.20;99.90
38941;DHT22;43236;47.208;7.518;2023-12-20T08:11:12;8.20;99.90
38941;DHT22;43236;47.208;7.518;2023-12-20T08:14:01;8.20;99.90
38941;DHT22;43236;47.208;7.518;2023-12-20T08:16:48;8.30;99.90
38941;DHT22;43236;47.208;7.518;2023-12-20T08:19:35;8.30;99.90
38941;DHT22;43236;47.208;7.518;2023-12-20T08:22:22;8.30;99.90
38941;DHT22;43236;47.208;7.518;2023-12-20T08:25:09;8.30;99.90
38941;DHT22;43236;47.208;7.518;2023-12-20T08:27:56;8.40;99.90
38941;DHT22;43236;47.208;7.518;2023-12-20T08:30:44;8.40;99.90
38941;DHT22;43236;47.208;7.518;2023-12-20T08:33:31;8.40;99.90
38941;DHT22;43236;47.208;7.518;2023-12-20T08:36:19;8.40;99.90
38941;DHT22;43236;47.208;7.518;2023-12-20T08:39:07;8.30;99.90
38941;DHT22;43236;47.208;7.518;2023-12-20T08:41:54;8.30;99.90
38941;DHT22;43236;47.208;7.518;2023-12-20T08:44:41;8.40;99.90
38941;DHT22;43236;47.208;7.518;2023-12-20T08:47:29;8.40;99.90
38941;DHT22;43236;47.208;7.518;2023-12-20T08:50:16;8.40;99.90
38941;DHT22;43236;47.208;7.518;2023-12-20T08:53:04;8.40;99.90
38941;DHT22;43236;47.208;7.518;2023-12-20T08:55:51;8.40;99.90
38941;DHT22;43236;47.208;7.518;2023-12-20T08:58:38;8.40;99.90
38941;DHT22;43236;47.208;7.518;2023-12-20T09:01:25;8.50;99.90
38941;DHT22;43236;47.208;7.518;2023-12-20T09:04:13;8.50;99.90
38941;DHT22;43236;47.208;7.518;2023-12-20T09:07:00;8.60;99.90
38941;DHT22;43236;47.208;7.518;2023-12-20T09:09:47;8.60;99.90
38941;DHT22;43236;47.208;7.518;2023-12-20T09:12:34;8.70;99.90
38941;DHT22;43236;47.208;7.518;2023-12-20T09:15:23;8.70;99.90
38941;DHT22;43236;47.208;7.518;2023-12-20T09:18:11;8.80;99.90
38941;DHT22;43236;47.208;7.518;2023-12-20T09:20:59;8.90;99.90
38941;DHT22;43236;47.208;7.518;2023-12-20T09:23:46;9.00;99.90
38941;DHT22;43236;47.208;7.518;2023-12-20T09:26:33;9.00;99.90
38941;DHT22;43236;47.208;7.518;2023-12-20T09:29:20;9.00;99.90
38941;DHT22;43236;47.208;7.518;2023-12-20T09:32:07;9.00;99.90
38941;DHT22;43236;47.208;7.518;2023-12-20T09:34:54;8.90;99.90
38941;DHT22;43236;47.208;7.518;2023-12-20T09:37:43;8.90;99.90
38941;DHT22;43236;47.208;7.518;2023-12-20T09:40:32;8.90;99.90
38941;DHT22;43236;47.208;7.518;2023-12-20T09:43:20;8.90;99.90
38941;DHT22;43236;47.208;7.518;2023-12-20T09:46:12;8.90;99.90
38941;DHT22;43236;47.208;7.518;2023-12-20T09:49:00;9.00;99.90
38941;DHT22;43236;47.208;7.518;2023-12-20T09:51:48;9.00;99.90
38941;DHT22;43236;47.208;7.518;2023-12-20T09:54:38;9.10;99.90
38941;DHT22;43236;47.208;7.518;2023-12-20T09:57:26;9.20;99.90
38941;DHT22;43236;47.208;7.518;2023-12-20T10:00:14;9.20;99.90
38941;DHT22;43236;47.208;7.518;2023-12-20T10:03:03;9.30;99.90
38941;DHT22;43236;47.208;7.518;2023-12-20T10:05:54;9.30;99.90
38941;DHT22;43236;47.208;7.518;2023-12-20T10:08:43;9.40;99.90
38941;DHT22;43236;47.208;7.518;2023-12-20T10:11:31;9.40;99.90
38941;DHT22;43236;47.208;7.518;2023-12-20T10:14:18;9.50;99.90
38941;DHT22;43236;47.208;7.518;2023-12-20T10:17:06;9.60;99.90
38941;DHT22;43236;47.208;7.518;2023-12-20T10:19:53;9.60;99.90
38941;DHT22;43236;47.208;7.518;2023-12-20T10:22:40;9.60;99.90
38941;DHT22;43236;47.208;7.518;2023-12-20T10:25:27;9.70;99.90
38941;DHT22;43236;47.208;7.518;2023-12-20T10:28:16;9.80;99.90
38941;DHT22;43236;47.208;7.518;2023-12-20T10:31:05;9.90;99.90
38941;DHT22;43236;47.208;7.518;2023-12-20T10:33:52;10.00;99.90
38941;DHT22;43236;47.208;7.518;2023-12-20T10:36:39;10.10;99.90
38941;DHT22;43236;47.208;7.518;2023-12-20T10:39:26;10.20;99.90
38941;DHT22;43236;47.208;7.518;2023-12-20T10:42:13;10.30;99.90
38941;DHT22;43236;47.208;7.518;2023-12-20T10:45:03;10.30;99.90
38941;DHT22;43236;47.208;7.518;2023-12-20T10:47:50;10.40;99.90
38941;DHT22;43236;47.208;7.518;2023-12-20T10:50:38;10.40;99.90
38941;DHT22;43236;47.208;7.518;2023-12-20T10:53:26;10.40;99.90
38941;DHT22;43236;47.208;7.518;2023-12-20T10:56:15;10.40;99.90
38941;DHT22;43236;47.208;7.518;2023-12-20T10:59:04;10.30;99.90
38941;DHT22;43236;47.208;7.518;2023-12-20T11:01:54;10.20;99.90
38941;DHT22;43236;47.208;7.518;2023-12-20T11:04:49;10.20;99.90
38941;DHT22;43236;47.208;7.518;2023-12-20T11:07:43;10.10;99.90
38941;DHT22;43236;47.208;7.518;2023-12-20T11:10:34;10.10;99.90
38941;DHT22;43236;47.208;7.518;2023-12-20T11:13:28;10.00;99.90
38941;DHT22;43236;47.208;7.518;2023-12-20T11:16:18;10.00;99.90
38941;DHT22;43236;47.208;7.518;2023-12-20T11:19:06;10.00;99.90
38941;DHT22;43236;47.208;7.518;2023-12-20T11:21:54;10.00;99.90
38941;DHT22;43236;47.208;7.518;2023-12-20T11:24:44;10.00;99.90
38941;DHT22;43236;47.208;7.518;2023-12-20T11:27:31;10.00;99.90
38941;DHT22;43236;47.208;7.518;2023-12-20T11:30:20;9.90;99.90
38941;DHT22;43236;47.208;7.518;2023-12-20T11:33:07;9.90;99.90
38941;DHT22;43236;47.208;7.518;2023-12-20T11:35:57;9.90;99.90
38941;DHT22;43236;47.208;7.518;2023-12-20T11:39:03;9.90;99.10
38941;DHT22;43236;47.208;7.518;2023-12-20T11:41:36;9.80;97.80
38941;DHT22;43236;47.208;7.518;2023-12-20T11:44:25;9.70;98.20
38941;DHT22;43236;47.208;7.518;2023-12-20T11:47:13;9.70;97.90
38941;DHT22;43236;47.208;7.518;2023-12-20T11:50:01;9.70;98.00
38941;DHT22;43236;47.208;7.518;2023-12-20T11:52:52;9.60;97.70
38941;DHT22;43236;47.208;7.518;2023-12-20T11:55:39;9.60;97.70
38941;DHT22;43236;47.208;7.518;2023-12-20T11:58:27;9.60;97.90
38941;DHT22;43236;47.208;7.518;2023-12-20T12:01:14;9.60;98.00
38941;DHT22;43236;47.208;7.518;2023-12-20T12:04:04;9.50;97.80
38941;DHT22;43236;47.208;7.518;2023-12-20T12:06:51;9.50;98.00
38941;DHT22;43236;47.208;7.518;2023-12-20T12:09:39;9.50;97.40
38941;DHT22;43236;47.208;7.518;2023-12-20T12:12:26;9.50;97.60
38941;DHT22;43236;47.208;7.518;2023-12-20T12:15:15;9.50;98.30
38941;DHT22;43236;47.208;7.518;2023-12-20T12:18:02;9.60;97.70
38941;DHT22;43236;47.208;7.518;2023-12-20T12:20:49;9.70;96.70
38941;DHT22;43236;47.208;7.518;2023-12-20T12:23:36;9.70;97.10
38941;DHT22;43236;47.208;7.518;2023-12-20T12:26:30;9.80;96.20
38941;DHT22;43236;47.208;7.518;2023-12-20T12:29:17;9.80;95.40
38941;DHT22;43236;47.208;7.518;2023-12-20T12:32:05;9.90;94.70
38941;DHT22;43236;47.208;7.518;2023-12-20T12:34:53;10.00;91.80
38941;DHT22;43236;47.208;7.518;2023-12-20T12:37:40;10.00;92.10
38941;DHT22;43236;47.208;7.518;2023-12-20T12:40:28;9.90;90.90
38941;DHT22;43236;47.208;7.518;2023-12-20T12:43:16;9.90;90.60
38941;DHT22;43236;47.208;7.518;2023-12-20T12:46:04;9.80;91.10
38941;DHT22;43236;47.208;7.518;2023-12-20T12:48:51;9.80;91.10
38941;DHT22;43236;47.208;7.518;2023-12-20T12:51:38;9.80;90.70
38941;DHT22;43236;47.208;7.518;2023-12-20T12:54:25;9.80;90.60
38941;DHT22;43236;47.208;7.518;2023-12-20T12:57:13;9.80;90.00
38941;DHT22;43236;47.208;7.518;2023-12-20T13:00:02;9.80;88.50
38941;DHT22;43236;47.208;7.518;2023-12-20T13:02:50;9.70;87.20
38941;DHT22;43236;47.208;7.518;2023-12-20T13:05:37;9.70;86.70
38941;DHT22;43236;47.208;7.518;2023-12-20T13:08:24;9.60;88.70
38941;DHT22;43236;47.208;7.518;2023-12-20T13:11:11;9.60;88.50
38941;DHT22;43236;47.208;7.518;2023-12-20T13:13:58;9.50;88.30
38941;DHT22;43236;47.208;7.518;2023-12-20T13:16:47;9.50;85.70
38941;DHT22;43236;47.208;7.518;2023-12-20T13:19:34;9.40;84.20
38941;DHT22;43236;47.208;7.518;2023-12-20T13:22:21;9.40;82.80
38941;DHT22;43236;47.208;7.518;2023-12-20T13:25:08;9.40;84.50
38941;DHT22;43236;47.208;7.518;2023-12-20T13:27:55;9.50;84.20
38941;DHT22;43236;47.208;7.518;2023-12-20T13:30:42;9.50;84.50
38941;DHT22;43236;47.208;7.518;2023-12-20T13:33:30;9.40;84.50
38941;DHT22;43236;47.208;7.518;2023-12-20T13:36:18;9.40;83.70
38941;DHT22;43236;47.208;7.518;2023-12-20T13:39:05;9.40;81.10
38941;DHT22;43236;47.208;7.518;2023-12-20T13:41:52;9.30;79.90
38941;DHT22;43236;47.208;7.518;2023-12-20T13:44:40;9.30;81.20
38941;DHT22;43236;47.208;7.518;2023-12-20T13:47:27;9.30;80.60
38941;DHT22;43236;47.208;7.518;2023-12-20T13:50:16;9.30;81.90
38941;DHT22;43236;47.208;7.518;2023-12-20T13:53:03;9.40;82.60
38941;DHT22;43236;47.208;7.518;2023-12-20T13:55:50;9.50;81.30
38941;DHT22;43236;47.208;7.518;2023-12-20T13:58:37;9.50;83.00
38941;DHT22;43236;47.208;7.518;2023-12-20T14:01:25;9.50;80.60
38941;DHT22;43236;47.208;7.518;2023-12-20T14:04:12;9.50;82.50
38941;DHT22;43236;47.208;7.518;2023-12-20T14:07:00;9.60;82.80
38941;DHT22;43236;47.208;7.518;2023-12-20T14:09:48;9.60;83.70
38941;DHT22;43236;47.208;7.518;2023-12-20T14:12:36;9.60;84.40
38941;DHT22;43236;47.208;7.518;2023-12-20T14:15:23;9.60;83.30
38941;DHT22;43236;47.208;7.518;2023-12-20T14:18:11;9.60;83.60
38941;DHT22;43236;47.208;7.518;2023-12-20T14:21:00;9.60;82.40
38941;DHT22;43236;47.208;7.518;2023-12-20T14:23:49;9.60;81.60
38941;DHT22;43236;47.208;7.518;2023-12-20T14:26:36;9.50;84.60
38941;DHT22;43236;47.208;7.518;2023-12-20T14:29:23;9.50;82.50
38941;DHT22;43236;47.208;7.518;2023-12-20T14:32:10;9.50;82.10
38941;DHT22;43236;47.208;7.518;2023-12-20T14:34:57;9.50;81.50
38941;DHT22;43236;47.208;7.518;2023-12-20T14:37:44;9.40;80.00
38941;DHT22;43236;47.208;7.518;2023-12-20T14:40:32;9.30;81.60
38941;DHT22;43236;47.208;7.518;2023-12-20T14:43:19;9.20;81.50
38941;DHT22;43236;47.208;7.518;2023-12-20T14:46:07;9.10;80.30
38941;DHT22;43236;47.208;7.518;2023-12-20T14:48:55;9.10;79.70
38941;DHT22;43236;47.208;7.518;2023-12-20T14:51:43;9.10;80.30
38941;DHT22;43236;47.208;7.518;2023-12-20T14:54:33;9.00;81.90
38941;DHT22;43236;47.208;7.518;2023-12-20T14:57:21;8.90;81.60
38941;DHT22;43236;47.208;7.518;2023-12-20T15:00:09;8.90;81.90
38941;DHT22;43236;47.208;7.518;2023-12-20T15:03:02;8.80;81.80
38941;DHT22;43236;47.208;7.518;2023-12-20T15:05:50;8.90;81.40
38941;DHT22;43236;47.208;7.518;2023-12-20T15:08:37;8.80;81.80
38941;DHT22;43236;47.208;7.518;2023-12-20T15:11:24;8.80;80.80
38941;DHT22;43236;47.208;7.518;2023-12-20T15:14:13;8.80;79.80
38941;DHT22;43236;47.208;7.518;2023-12-20T15:17:05;8.80;81.00
38941;DHT22;43236;47.208;7.518;2023-12-20T15:19:52;8.80;80.80
38941;DHT22;43236;47.208;7.518;2023-12-20T15:22:39;8.80;81.50
38941;DHT22;43236;47.208;7.518;2023-12-20T15:25:27;8.70;80.90
38941;DHT22;43236;47.208;7.518;2023-12-20T15:28:14;8.70;80.00
38941;DHT22;43236;47.208;7.518;2023-12-20T15:31:04;8.70;80.60
38941;DHT22;43236;47.208;7.518;2023-12-20T15:33:52;8.70;81.80
38941;DHT22;43236;47.208;7.518;2023-12-20T15:36:39;8.70;82.40
38941;DHT22;43236;47.208;7.518;2023-12-20T15:39:27;8.70;82.70
38941;DHT22;43236;47.208;7.518;2023-12-20T15:42:14;8.60;83.70
38941;DHT22;43236;47.208;7.518;2023-12-20T15:45:01;8.50;82.00
38941;DHT22;43236;47.208;7.518;2023-12-20T15:47:49;8.50;81.10
38941;DHT22;43236;47.208;7.518;2023-12-20T15:50:36;8.40;80.50
38941;DHT22;43236;47.208;7.518;2023-12-20T15:53:23;8.40;81.60
38941;DHT22;43236;47.208;7.518;2023-12-20T15:56:10;8.40;83.30
38941;DHT22;43236;47.208;7.518;2023-12-20T15:58:58;8.40;82.60
38941;DHT22;43236;47.208;7.518;2023-12-20T16:01:45;8.40;82.50
38941;DHT22;43236;47.208;7.518;2023-12-20T16:04:34;8.40;82.80
38941;DHT22;43236;47.208;7.518;2023-12-20T16:07:21;8.30;82.90
38941;DHT22;43236;47.208;7.518;2023-12-20T16:10:09;8.30;83.80
38941;DHT22;43236;47.208;7.518;2023-12-20T16:12:56;8.30;83.90
38941;DHT22;43236;47.208;7.518;2023-12-20T16:15:43;8.30;84.60
38941;DHT22;43236;47.208;7.518;2023-12-20T16:18:30;8.20;84.80
38941;DHT22;43236;47.208;7.518;2023-12-20T16:21:19;8.20;84.30
38941;DHT22;43236;47.208;7.518;2023-12-20T16:24:07;8.20;84.10
38941;DHT22;43236;47.208;7.518;2023-12-20T16:26:54;8.10;84.30
38941;DHT22;43236;47.208;7.518;2023-12-20T16:29:41;8.00;84.30
38941;DHT22;43236;47.208;7.518;2023-12-20T16:32:29;8.00;84.70
38941;DHT22;43236;47.208;7.518;2023-12-20T16:35:17;8.00;85.40
38941;DHT22;43236;47.208;7.518;2023-12-20T16:38:05;8.00;85.50
38941;DHT22;43236;47.208;7.518;2023-12-20T16:40:52;7.90;85.70
38941;DHT22;43236;47.208;7.518;2023-12-20T16:43:40;7.90;85.10
38941;DHT22;43236;47.208;7.518;2023-12-20T16:46:27;7.90;85.50
38941;DHT22;43236;47.208;7.518;2023-12-20T16:49:14;7.80;85.70
38941;DHT22;43236;47.208;7.518;2023-12-20T16:52:01;7.80;86.00
38941;DHT22;43236;47.208;7.518;2023-12-20T16:54:50;7.80;86.10
38941;DHT22;43236;47.208;7.518;2023-12-20T16:57:37;7.80;87.40
38941;DHT22;43236;47.208;7.518;2023-12-20T17:00:24;7.80;86.40
38941;DHT22;43236;47.208;7.518;2023-12-20T17:03:12;7.80;85.70
38941;DHT22;43236;47.208;7.518;2023-12-20T17:05:59;7.80;85.90
38941;DHT22;43236;47.208;7.518;2023-12-20T17:08:46;7.80;85.70
38941;DHT22;43236;47.208;7.518;2023-12-20T17:11:34;7.70;86.40
38941;DHT22;43236;47.208;7.518;2023-12-20T17:14:21;7.70;86.50
38941;DHT22;43236;47.208;7.518;2023-12-20T17:17:08;7.70;87.00
38941;DHT22;43236;47.208;7.518;2023-12-20T17:19:55;7.70;87.60
38941;DHT22;43236;47.208;7.518;2023-12-20T17:22:42;7.70;87.60
38941;DHT22;43236;47.208;7.518;2023-12-20T17:25:29;7.70;86.70
38941;DHT22;43236;47.208;7.518;2023-12-20T17:28:17;7.70;86.10
38941;DHT22;43236;47.208;7.518;2023-12-20T17:31:04;7.70;85.60
38941;DHT22;43236;47.208;7.518;2023-12-20T17:33:52;7.70;87.10
38941;DHT22;43236;47.208;7.518;2023-12-20T17:36:40;7.70;84.80
38941;DHT22;43236;47.208;7.518;2023-12-20T17:39:28;7.70;85.60
38941;DHT22;43236;47.208;7.518;2023-12-20T17:42:15;7.70;85.10
38941;DHT22;43236;47.208;7.518;2023-12-20T17:45:04;7.70;84.90
38941;DHT22;43236;47.208;7.518;2023-12-20T17:47:51;7.70;85.10
38941;DHT22;43236;47.208;7.518;2023-12-20T17:50:38;7.70;84.10
38941;DHT22;43236;47.208;7.518;2023-12-20T17:53:28;7.70;84.80
38941;DHT22;43236;47.208;7.518;2023-12-20T17:56:15;7.70;85.10